createdAt,value
2022-11-17T00:00:42.679Z,13.48
2022-11-17T00:03:15.083Z,10.60
2022-11-17T00:05:42.151Z,8.98
2022-11-17T00:08:09.446Z,10.88
2022-11-17T00:10:36.386Z,10.05
2022-11-17T00:13:22.023Z,12.52
2022-11-17T00:15:48.799Z,12.23
2022-11-17T00:18:34.109Z,11.25
2022-11-17T00:21:19.217Z,10.85
2022-11-17T00:23:50.096Z,13.25
2022-11-17T00:26:22.457Z,14.52
2022-11-17T00:28:57.488Z,12.88
2022-11-17T00:31:43.746Z,16.17
2022-11-17T00:34:22.987Z,14.18
2022-11-17T00:36:51.883Z,14.05
2022-11-17T00:39:22.271Z,16.08
2022-11-17T00:41:49.312Z,14.60
2022-11-17T00:44:16.194Z,15.05
2022-11-17T00:46:43.295Z,16.17
2022-11-17T00:49:11.334Z,15.52
2022-11-17T00:51:38.630Z,15.52
2022-11-17T00:54:06.728Z,16.30
2022-11-17T00:56:34.084Z,15.10
2022-11-17T00:59:00.972Z,18.42
2022-11-17T01:01:27.954Z,18.40
2022-11-17T01:04:03.123Z,15.82
2022-11-17T01:06:41.718Z,16.17
2022-11-17T01:09:16.319Z,17.83
2022-11-17T01:11:43.860Z,15.48
2022-11-17T01:14:14.469Z,16.50
2022-11-17T01:16:41.541Z,18.80
2022-11-17T01:19:08.827Z,18.20
2022-11-17T01:21:35.603Z,16.98
2022-11-17T01:24:02.572Z,17.35
2022-11-17T01:26:35.696Z,16.63
2022-11-17T01:29:03.833Z,17.83
2022-11-17T01:31:32.951Z,19.63
2022-11-17T01:34:00.068Z,17.33
2022-11-17T01:36:51.517Z,16.77
2022-11-17T01:39:18.603Z,18.83
2022-11-17T01:41:45.389Z,17.98
2022-11-17T01:44:48.304Z,20.13
2022-11-17T01:47:20.035Z,20.02
2022-11-17T01:49:48.848Z,17.77
2022-11-17T01:52:16.241Z,15.68
2022-11-17T01:54:46.975Z,16.38
2022-11-17T01:57:20.253Z,19.98
2022-11-17T01:59:53.088Z,19.77
2022-11-17T02:02:20.829Z,17.90
2022-11-17T02:05:15.815Z,21.15
2022-11-17T02:07:44.930Z,19.15
2022-11-17T02:10:11.971Z,19.38
2022-11-17T02:12:38.873Z,18.92
2022-11-17T02:15:06.163Z,23.85
2022-11-17T02:17:37.581Z,17.48
2022-11-17T02:20:07.459Z,20.48
2022-11-17T02:22:48.952Z,22.45
2022-11-17T02:25:40.072Z,18.27
2022-11-17T02:28:18.882Z,19.00
2022-11-17T02:31:17.786Z,18.40
2022-11-17T02:34:02.617Z,21.67
2022-11-17T02:36:29.350Z,20.13
2022-11-17T02:39:20.113Z,20.95
2022-11-17T02:41:58.696Z,20.10
2022-11-17T02:44:48.095Z,22.67
2022-11-17T02:47:23.825Z,21.65
2022-11-17T02:50:10.672Z,17.33
2022-11-17T02:52:37.707Z,21.67
2022-11-17T02:55:07.850Z,20.73
2022-11-17T02:57:39.542Z,19.58
2022-11-17T03:00:15.128Z,23.60
2022-11-17T03:03:06.148Z,19.05
2022-11-17T03:05:47.959Z,22.02
2022-11-17T03:08:50.026Z,21.35
2022-11-17T03:11:19.161Z,20.35
2022-11-17T03:13:51.820Z,21.77
2022-11-17T03:16:34.794Z,19.25
2022-11-17T03:19:10.580Z,21.27
2022-11-17T03:21:37.293Z,18.60
2022-11-17T03:24:16.968Z,22.40
2022-11-17T03:26:50.093Z,18.98
2022-11-17T03:29:20.479Z,22.27
2022-11-17T03:31:49.087Z,19.40
2022-11-17T03:34:20.581Z,23.98
2022-11-17T03:36:51.972Z,22.40
2022-11-17T03:39:47.834Z,22.10
2022-11-17T03:42:22.893Z,20.30
2022-11-17T03:45:02.435Z,22.47
2022-11-17T03:47:33.457Z,22.58
2022-11-17T03:50:13.562Z,21.40
2022-11-17T03:52:41.601Z,22.00
2022-11-17T03:55:09.551Z,18.65
2022-11-17T03:58:01.192Z,23.80
2022-11-17T04:00:28.232Z,24.73
2022-11-17T04:02:58.716Z,21.02
2022-11-17T04:05:26.136Z,22.80
2022-11-17T04:07:53.150Z,23.23
2022-11-17T04:10:25.834Z,25.55
2022-11-17T04:13:12.848Z,21.00
2022-11-17T04:15:59.085Z,24.70
2022-11-17T04:20:55.930Z,23.98
2022-11-17T04:23:24.034Z,20.70
2022-11-17T04:26:12.371Z,22.35
2022-11-17T04:28:48.458Z,21.55
2022-11-17T04:31:20.971Z,20.75
2022-11-17T04:33:50.291Z,21.00
2022-11-17T04:36:24.469Z,24.70
2022-11-17T04:38:54.791Z,22.52
2022-11-17T04:41:42.255Z,22.98
2022-11-17T04:44:11.176Z,21.38
2022-11-17T04:46:39.284Z,20.83
2022-11-17T04:49:07.077Z,23.67
2022-11-17T04:51:35.137Z,22.10
2022-11-17T04:54:02.435Z,26.05
2022-11-17T04:56:29.580Z,26.63
2022-11-17T04:58:56.710Z,24.25
2022-11-17T05:01:25.083Z,28.40
2022-11-17T05:03:52.938Z,29.40
2022-11-17T05:06:25.354Z,32.53
2022-11-17T05:08:56.640Z,39.05
2022-11-17T05:11:46.992Z,31.95
2022-11-17T05:14:15.908Z,28.52
2022-11-17T05:17:08.403Z,30.85
2022-11-17T05:19:36.046Z,31.45
2022-11-17T05:22:03.227Z,28.15
2022-11-17T05:24:29.972Z,29.23
2022-11-17T05:26:56.831Z,32.10
2022-11-17T05:29:24.020Z,32.90
2022-11-17T05:31:51.093Z,30.63
2022-11-17T05:34:18.593Z,29.38
2022-11-17T05:36:46.060Z,33.60
2022-11-17T05:39:14.062Z,35.15
2022-11-17T05:41:40.936Z,26.30
2022-11-17T05:44:07.721Z,34.45
2022-11-17T05:46:34.456Z,33.05
2022-11-17T05:49:01.429Z,34.50
2022-11-17T05:51:28.279Z,29.85
2022-11-17T05:53:55.104Z,30.48
2022-11-17T05:56:46.672Z,29.77
2022-11-17T05:59:24.796Z,26.35
2022-11-17T06:02:00.641Z,29.40
2022-11-17T06:04:28.563Z,32.08
2022-11-17T06:06:59.477Z,31.98
2022-11-17T06:09:29.912Z,29.17
2022-11-17T06:12:00.966Z,33.38
2022-11-17T06:14:31.034Z,27.38
2022-11-17T06:17:03.767Z,32.90
2022-11-17T06:19:37.286Z,36.25
2022-11-17T06:22:12.052Z,39.20
2022-11-17T06:24:41.374Z,38.38
2022-11-17T06:27:08.344Z,37.30
2022-11-17T06:29:39.416Z,34.55
2022-11-17T06:32:09.752Z,26.58
2022-11-17T06:34:37.545Z,33.55
2022-11-17T06:37:04.332Z,31.55
2022-11-17T06:39:31.163Z,26.38
2022-11-17T06:41:57.949Z,29.05
2022-11-17T06:44:24.698Z,26.80
2022-11-17T06:46:51.450Z,31.98
2022-11-17T06:49:18.267Z,28.45
2022-11-17T06:51:45.751Z,31.42
2022-11-17T06:54:14.600Z,31.10
2022-11-17T06:56:41.968Z,34.25
2022-11-17T06:59:08.683Z,35.17
2022-11-17T07:01:36.826Z,31.02
2022-11-17T07:04:03.753Z,31.20
2022-11-17T07:06:30.556Z,33.17
2022-11-17T07:08:57.333Z,31.88
2022-11-17T07:11:24.076Z,29.67
2022-11-17T07:13:50.786Z,29.13
2022-11-17T07:16:23.468Z,29.67
2022-11-17T07:18:52.270Z,25.90
2022-11-17T07:21:19.211Z,30.52
2022-11-17T07:23:47.086Z,27.85
2022-11-17T07:26:14.348Z,32.20
2022-11-17T07:28:41.173Z,30.35
2022-11-17T07:31:09.174Z,29.00
2022-11-17T07:33:36.619Z,34.60
2022-11-17T07:36:05.676Z,30.40
2022-11-17T07:38:34.780Z,31.88
2022-11-17T07:41:02.550Z,33.80
2022-11-17T07:43:29.492Z,29.95
2022-11-17T07:45:56.657Z,29.77
2022-11-17T07:48:23.455Z,28.55
2022-11-17T07:50:50.539Z,31.73
2022-11-17T07:53:17.304Z,33.47
2022-11-17T07:55:44.096Z,30.30
2022-11-17T07:58:10.894Z,36.17
2022-11-17T08:00:37.841Z,29.60
2022-11-17T08:03:05.042Z,28.08
2022-11-17T08:05:41.552Z,32.63
2022-11-17T08:08:10.021Z,28.63
2022-11-17T08:10:37.034Z,30.30
2022-11-17T08:13:04.543Z,25.40
2022-11-17T08:15:31.569Z,31.73
2022-11-17T08:18:00.090Z,28.90
2022-11-17T08:20:29.218Z,29.23
2022-11-17T08:22:56.664Z,30.83
2022-11-17T08:25:26.000Z,30.20
2022-11-17T08:27:57.893Z,35.00
2022-11-17T08:30:26.120Z,27.20
2022-11-17T08:32:53.976Z,27.90
2022-11-17T08:35:23.269Z,28.20
2022-11-17T08:37:50.164Z,32.30
2022-11-17T08:40:18.231Z,38.65
2022-11-17T08:42:45.618Z,32.70
2022-11-17T08:45:13.364Z,33.38
2022-11-17T08:47:40.339Z,33.03
2022-11-17T08:50:07.582Z,27.17
2022-11-17T08:52:34.396Z,29.00
2022-11-17T08:55:02.134Z,30.35
2022-11-17T08:57:33.029Z,35.20
2022-11-17T08:59:59.894Z,27.15
2022-11-17T09:02:26.771Z,27.15
2022-11-17T09:04:53.634Z,30.67
2022-11-17T09:07:20.461Z,25.85
2022-11-17T09:09:48.501Z,26.30
2022-11-17T09:12:15.972Z,29.55
2022-11-17T09:14:42.976Z,31.67
2022-11-17T09:17:09.943Z,29.30
2022-11-17T09:19:36.715Z,27.17
2022-11-17T09:22:03.620Z,24.70
2022-11-17T09:24:30.346Z,26.98
2022-11-17T09:26:57.626Z,28.50
2022-11-17T09:29:24.489Z,25.95
2022-11-17T09:31:51.318Z,31.80
2022-11-17T09:34:18.285Z,26.85
2022-11-17T09:36:45.110Z,24.80
2022-11-17T09:39:11.875Z,25.10
2022-11-17T09:41:46.785Z,25.27
2022-11-17T09:44:19.297Z,26.33
2022-11-17T09:47:04.362Z,28.38
2022-11-17T09:49:40.191Z,25.55
2022-11-17T09:52:35.023Z,29.77
2022-11-17T09:55:27.271Z,31.20
2022-11-17T09:58:31.327Z,32.72
2022-11-17T10:00:58.579Z,27.30
2022-11-17T10:03:30.881Z,28.50
2022-11-17T10:05:59.521Z,30.80
2022-11-17T10:08:38.124Z,27.45
2022-11-17T10:11:30.388Z,29.08
2022-11-17T10:13:58.310Z,28.20
2022-11-17T10:16:25.215Z,33.50
2022-11-17T10:18:51.988Z,26.88
2022-11-17T10:21:18.843Z,28.25
2022-11-17T10:23:56.544Z,36.10
2022-11-17T10:26:23.273Z,33.35
2022-11-17T10:29:08.798Z,28.13
2022-11-17T10:31:44.779Z,27.75
2022-11-17T10:34:29.822Z,26.75
2022-11-17T10:37:05.395Z,30.67
2022-11-17T10:39:33.899Z,30.63
2022-11-17T10:42:12.879Z,29.38
2022-11-17T10:44:42.951Z,31.88
2022-11-17T10:47:52.120Z,27.75
2022-11-17T10:50:25.068Z,33.42
2022-11-17T10:52:53.916Z,35.90
2022-11-17T10:55:33.915Z,32.22
2022-11-17T10:58:23.326Z,31.20
2022-11-17T11:00:58.895Z,29.90
2022-11-17T11:03:32.174Z,27.45
2022-11-17T11:06:05.410Z,26.60
2022-11-17T11:08:55.338Z,27.50
2022-11-17T11:11:41.195Z,26.75
2022-11-17T11:14:36.779Z,27.10
2022-11-17T11:17:12.234Z,29.90
2022-11-17T11:19:43.300Z,27.90
2022-11-17T11:22:20.946Z,25.85
2022-11-17T11:24:57.993Z,24.55
2022-11-17T11:27:57.369Z,23.40
2022-11-17T11:30:24.247Z,30.92
2022-11-17T11:33:11.942Z,27.90
2022-11-17T11:35:58.026Z,29.30
2022-11-17T11:42:43.181Z,27.65
2022-11-17T11:45:37.992Z,24.48
2022-11-17T11:48:21.848Z,25.25
2022-11-17T11:50:55.259Z,26.48
2022-11-17T11:53:28.763Z,29.23
2022-11-17T11:56:08.643Z,25.83
2022-11-17T11:58:40.834Z,26.20
2022-11-17T12:01:09.589Z,26.05
2022-11-17T12:03:56.873Z,24.05
2022-11-17T12:06:43.590Z,20.30
2022-11-17T12:09:28.832Z,22.58
2022-11-17T12:12:03.154Z,24.38
2022-11-17T12:14:36.449Z,24.67
2022-11-17T12:17:18.621Z,24.42
2022-11-17T12:19:58.879Z,30.48
2022-11-17T12:22:32.263Z,27.38
2022-11-17T12:25:28.334Z,23.55
2022-11-17T12:27:55.105Z,27.15
2022-11-17T12:30:33.799Z,21.45
2022-11-17T12:33:04.020Z,25.75
2022-11-17T12:35:39.113Z,23.75
2022-11-17T12:38:17.714Z,29.00
2022-11-17T12:40:46.838Z,25.73
2022-11-17T12:43:16.422Z,27.20
2022-11-17T12:45:58.639Z,24.70
2022-11-17T12:48:35.924Z,20.13
2022-11-17T12:51:11.901Z,23.17
2022-11-17T12:53:50.547Z,22.98
2022-11-17T12:56:17.269Z,21.85
2022-11-17T12:59:19.397Z,23.80
2022-11-17T13:01:49.378Z,23.80
2022-11-17T13:04:21.485Z,20.27
2022-11-17T13:07:16.845Z,22.50
2022-11-17T13:09:43.637Z,19.42
2022-11-17T13:12:11.348Z,21.15
2022-11-17T13:14:53.721Z,23.08
2022-11-17T13:17:29.528Z,23.65
2022-11-17T13:20:29.911Z,19.27
2022-11-17T13:23:18.270Z,21.55
2022-11-17T13:25:45.079Z,24.85
2022-11-17T13:28:29.560Z,25.35
2022-11-17T13:30:56.911Z,25.70
2022-11-17T13:33:24.979Z,24.98
2022-11-17T13:36:17.814Z,21.13
2022-11-17T13:38:51.871Z,22.40
2022-11-17T13:41:21.909Z,19.65
2022-11-17T13:43:50.457Z,23.45
2022-11-17T13:46:17.889Z,28.98
2022-11-17T13:48:46.512Z,21.58
2022-11-17T13:51:32.689Z,24.05
2022-11-17T13:54:11.683Z,20.00
2022-11-17T13:57:02.048Z,24.27
2022-11-17T13:59:38.478Z,26.25
2022-11-17T14:02:19.064Z,22.40
2022-11-17T14:05:10.953Z,24.33
2022-11-17T14:07:39.563Z,24.30
2022-11-17T14:10:15.205Z,22.90
2022-11-17T14:12:42.045Z,24.27
2022-11-17T14:15:22.825Z,22.38
2022-11-17T14:17:55.126Z,21.35
2022-11-17T14:20:25.033Z,21.88
2022-11-17T14:23:01.300Z,21.27
2022-11-17T14:25:29.538Z,21.92
2022-11-17T14:27:56.386Z,21.52
2022-11-17T14:30:23.295Z,22.38
2022-11-17T14:32:50.110Z,24.75
2022-11-17T14:37:44.837Z,21.90
2022-11-17T14:40:18.189Z,22.60
2022-11-17T14:42:45.035Z,21.52
2022-11-17T14:45:16.877Z,20.08
2022-11-17T14:47:44.250Z,22.77
2022-11-17T14:50:16.220Z,20.92
2022-11-17T14:52:44.560Z,27.17
2022-11-17T14:55:13.222Z,23.15
2022-11-17T14:57:41.213Z,24.75
2022-11-17T15:00:13.443Z,22.42
2022-11-17T15:02:43.046Z,21.98
2022-11-17T15:05:10.939Z,23.60
2022-11-17T15:07:38.292Z,31.90
2022-11-17T15:10:06.742Z,25.10
2022-11-17T15:12:33.670Z,25.10
2022-11-17T15:15:00.483Z,23.55
2022-11-17T15:17:28.314Z,28.17
2022-11-17T15:19:55.357Z,24.60
2022-11-17T15:22:22.484Z,25.20
2022-11-17T15:24:49.246Z,25.45
2022-11-17T15:27:16.122Z,22.70
2022-11-17T15:29:42.933Z,25.83
2022-11-17T15:32:10.632Z,24.23
2022-11-17T15:34:37.420Z,26.55
2022-11-17T15:37:05.552Z,28.00
2022-11-17T15:39:32.295Z,22.92
2022-11-17T15:41:59.087Z,27.52
2022-11-17T15:44:26.133Z,27.13
2022-11-17T15:46:52.871Z,22.40
2022-11-17T15:49:19.807Z,25.30
2022-11-17T15:51:46.629Z,24.83
2022-11-17T15:54:18.479Z,25.70
2022-11-17T15:56:47.317Z,22.95
2022-11-17T15:59:14.619Z,22.95
2022-11-17T16:01:41.826Z,22.88
2022-11-17T16:04:11.080Z,22.15
2022-11-17T16:06:42.640Z,24.67
2022-11-17T16:09:10.459Z,23.52
2022-11-17T16:11:37.660Z,24.60
2022-11-17T16:14:05.243Z,25.70
2022-11-17T16:16:37.301Z,25.30
2022-11-17T16:19:04.676Z,25.30
2022-11-17T16:21:31.475Z,24.67
2022-11-17T16:24:00.589Z,23.58
2022-11-17T16:26:28.414Z,25.13
2022-11-17T16:29:00.345Z,21.42
2022-11-17T16:31:30.150Z,26.92
2022-11-17T16:34:01.437Z,21.80
2022-11-17T16:36:35.957Z,25.33
2022-11-17T16:39:04.904Z,25.20
2022-11-17T16:41:34.170Z,23.05
2022-11-17T16:44:01.881Z,22.63
2022-11-17T16:46:30.706Z,19.27
2022-11-17T16:49:01.671Z,23.52
2022-11-17T16:51:28.654Z,27.52
2022-11-17T16:53:58.111Z,21.38
2022-11-17T16:56:25.010Z,21.77
2022-11-17T16:58:52.607Z,19.50
2022-11-17T17:01:27.346Z,20.00
2022-11-17T17:04:12.552Z,25.30
2022-11-17T17:06:41.733Z,22.52
2022-11-17T17:09:09.537Z,21.85
2022-11-17T17:11:37.280Z,20.02
2022-11-17T17:14:08.241Z,19.13
2022-11-17T17:16:36.996Z,18.02
2022-11-17T17:19:05.525Z,25.30
2022-11-17T17:21:33.589Z,21.13
2022-11-17T17:24:00.867Z,18.60
2022-11-17T17:26:29.868Z,22.48
2022-11-17T17:28:58.213Z,18.48
2022-11-17T17:31:29.084Z,25.13
2022-11-17T17:33:56.231Z,20.25
2022-11-17T17:36:26.685Z,21.45
2022-11-17T17:38:59.059Z,19.48
2022-11-17T17:41:27.747Z,20.73
2022-11-17T17:44:05.712Z,19.77
2022-11-17T17:46:36.639Z,19.30
2022-11-17T17:49:03.814Z,20.98
2022-11-17T17:51:30.990Z,20.52
2022-11-17T17:54:01.066Z,20.70
2022-11-17T17:56:28.371Z,19.20
2022-11-17T17:58:55.906Z,20.83
2022-11-17T18:01:25.730Z,18.25
2022-11-17T18:03:54.806Z,19.08
2022-11-17T18:06:22.604Z,18.33
2022-11-17T18:08:49.677Z,19.35
2022-11-17T18:11:20.670Z,18.63
2022-11-17T18:13:49.534Z,20.35
2022-11-17T18:16:25.513Z,23.42
2022-11-17T18:18:57.848Z,22.65
2022-11-17T18:21:24.812Z,26.40
2022-11-17T18:23:53.506Z,25.70
2022-11-17T18:26:41.276Z,25.42
2022-11-17T18:29:18.189Z,21.70
2022-11-17T18:31:49.439Z,17.52
2022-11-17T18:34:23.731Z,20.90
2022-11-17T18:36:52.009Z,24.45
2022-11-17T18:39:19.439Z,21.40
2022-11-17T18:41:47.027Z,20.17
2022-11-17T18:44:16.800Z,17.88
2022-11-17T18:46:43.635Z,17.05
2022-11-17T18:49:10.526Z,16.23
2022-11-17T18:51:37.406Z,15.88
2022-11-17T18:54:04.713Z,16.20
2022-11-17T18:56:36.227Z,18.17
2022-11-17T18:59:03.956Z,22.70
2022-11-17T19:01:30.894Z,19.77
2022-11-17T19:04:00.778Z,16.02
2022-11-17T19:06:28.011Z,17.20
2022-11-17T19:08:54.994Z,15.75
2022-11-17T19:11:22.826Z,17.42
2022-11-17T19:13:50.027Z,15.48
2022-11-17T19:16:21.281Z,18.02
2022-11-17T19:18:50.265Z,20.60
2022-11-17T19:21:20.176Z,18.88
2022-11-17T19:23:51.871Z,16.10
2022-11-17T19:26:24.514Z,17.00
2022-11-17T19:28:55.602Z,16.38
2022-11-17T19:31:22.657Z,13.48
2022-11-17T19:33:50.688Z,16.80
2022-11-17T19:36:23.381Z,16.73
2022-11-17T19:38:52.573Z,14.48
2022-11-17T19:41:23.982Z,20.42
2022-11-17T19:43:55.419Z,18.30
2022-11-17T19:46:23.903Z,16.65
2022-11-17T19:48:50.986Z,18.88
2022-11-17T19:51:24.925Z,17.30
2022-11-17T19:53:54.152Z,15.82
2022-11-17T19:56:22.827Z,17.27
2022-11-17T19:58:50.563Z,24.58
2022-11-17T20:01:24.933Z,16.83
2022-11-17T20:03:52.610Z,16.45
2022-11-17T20:06:21.558Z,15.20
2022-11-17T20:08:48.554Z,17.02
2022-11-17T20:11:17.842Z,17.88
2022-11-17T20:13:45.089Z,13.68
2022-11-17T20:16:14.823Z,16.73
2022-11-17T20:18:43.023Z,17.20
2022-11-17T20:21:11.299Z,14.48
2022-11-17T20:23:39.269Z,17.25
2022-11-17T20:26:18.272Z,15.05
2022-11-17T20:28:45.464Z,16.30
2022-11-17T20:31:19.411Z,16.38
2022-11-17T20:33:47.628Z,16.45
2022-11-17T20:36:19.794Z,14.60
2022-11-17T20:38:54.001Z,15.65
2022-11-17T20:41:23.287Z,19.02
2022-11-17T20:43:52.087Z,16.00
2022-11-17T20:46:19.808Z,14.75
2022-11-17T20:48:47.025Z,14.70
2022-11-17T20:51:16.827Z,17.40
2022-11-17T20:53:44.111Z,16.52
2022-11-17T20:56:14.629Z,11.82
2022-11-17T20:58:41.668Z,18.80
2022-11-17T21:01:14.543Z,16.35
2022-11-17T21:03:41.594Z,14.13
2022-11-17T21:06:08.616Z,15.45
2022-11-17T21:08:37.462Z,13.20
2022-11-17T21:11:07.438Z,14.75
2022-11-17T21:13:35.407Z,16.98
2022-11-17T21:16:06.180Z,15.32
2022-11-17T21:18:33.291Z,17.73
2022-11-17T21:21:00.459Z,13.25
2022-11-17T21:23:28.115Z,16.13
2022-11-17T21:25:55.080Z,14.68
2022-11-17T21:28:21.998Z,17.67
2022-11-17T21:30:48.737Z,17.05
2022-11-17T21:33:15.593Z,16.08
2022-11-17T21:35:42.341Z,15.00
2022-11-17T21:38:10.776Z,12.90
2022-11-17T21:40:37.751Z,12.40
2022-11-17T21:43:04.569Z,12.35
2022-11-17T21:45:33.319Z,12.48
2022-11-17T21:48:00.112Z,14.35
2022-11-17T21:50:27.102Z,15.18
2022-11-17T21:52:53.893Z,13.25
2022-11-17T21:55:20.689Z,11.50
2022-11-17T21:57:50.526Z,12.93
2022-11-17T22:00:17.949Z,11.75
2022-11-17T22:02:44.725Z,17.88
2022-11-17T22:05:11.584Z,13.20
2022-11-17T22:07:38.469Z,14.65
2022-11-17T22:10:06.030Z,15.43
2022-11-17T22:12:32.741Z,11.80
2022-11-17T22:14:59.443Z,14.48
2022-11-17T22:17:29.207Z,12.40
2022-11-17T22:19:55.965Z,11.48
2022-11-17T22:22:22.768Z,11.50
2022-11-17T22:24:50.050Z,12.70
2022-11-17T22:27:17.040Z,12.63
2022-11-17T22:29:43.782Z,13.30
2022-11-17T22:32:10.621Z,10.35
2022-11-17T22:34:37.396Z,11.95
2022-11-17T22:37:04.163Z,10.43
2022-11-17T22:39:34.141Z,12.85
2022-11-17T22:42:00.918Z,13.02
2022-11-17T22:44:27.710Z,13.57
2022-11-17T22:46:54.529Z,11.32
2022-11-17T22:49:21.315Z,11.30
2022-11-17T22:52:03.453Z,12.93
2022-11-17T22:54:33.765Z,15.23
2022-11-17T22:57:01.194Z,12.07
2022-11-17T22:59:29.347Z,13.32
2022-11-17T23:01:56.254Z,10.40
2022-11-17T23:04:23.241Z,11.68
2022-11-17T23:06:50.098Z,11.27
2022-11-17T23:09:17.230Z,10.75
2022-11-17T23:11:44.672Z,10.40
2022-11-17T23:14:13.799Z,9.70
2022-11-17T23:16:40.934Z,8.75
2022-11-17T23:19:11.177Z,9.80
2022-11-17T23:21:38.014Z,8.32
2022-11-17T23:24:05.098Z,11.30
2022-11-17T23:26:31.865Z,8.88
2022-11-17T23:28:58.927Z,9.32
2022-11-17T23:31:27.858Z,11.85
2022-11-17T23:33:54.688Z,10.30
2022-11-17T23:36:22.689Z,10.95
2022-11-17T23:38:50.429Z,12.57
2022-11-17T23:41:19.470Z,10.70
2022-11-17T23:43:46.735Z,9.95
2022-11-17T23:46:15.458Z,8.95
2022-11-17T23:48:43.168Z,10.07
2022-11-17T23:51:15.829Z,11.35
2022-11-17T23:53:43.086Z,11.40
2022-11-17T23:56:10.988Z,8.82
2022-11-17T23:58:38.189Z,11.60
